createdAt,value
2019-02-25T00:00:02.723Z,65.87
2019-02-25T00:01:10.012Z,65.08
2019-02-25T00:02:15.723Z,67.62
2019-02-25T00:03:21.125Z,68.87
2019-02-25T00:04:26.047Z,65.55
2019-02-25T00:05:35.842Z,70.50
2019-02-25T00:06:42.797Z,71.60
2019-02-25T00:07:49.624Z,69.70
2019-02-25T00:08:55.072Z,64.90
2019-02-25T00:10:00.970Z,65.42
2019-02-25T00:11:09.730Z,67.08
2019-02-25T00:12:13.727Z,67.40
2019-02-25T00:13:20.196Z,68.17
2019-02-25T00:14:26.084Z,67.50
2019-02-25T00:15:34.876Z,70.00
2019-02-25T00:16:43.895Z,68.65
2019-02-25T00:17:50.656Z,64.07
2019-02-25T00:18:59.179Z,64.80
2019-02-25T00:20:04.389Z,63.10
2019-02-25T00:21:08.664Z,67.92
2019-02-25T00:22:25.266Z,67.90
2019-02-25T00:23:30.156Z,62.17
2019-02-25T00:24:42.272Z,64.32
2019-02-25T00:25:49.444Z,75.20
2019-02-25T00:26:55.398Z,65.67
2019-02-25T00:28:05.932Z,61.13
2019-02-25T00:29:19.352Z,68.10
2019-02-25T00:30:27.196Z,65.57
2019-02-25T00:31:31.751Z,66.17
2019-02-25T00:34:05.684Z,65.12
2019-02-25T00:35:13.147Z,70.52
2019-02-25T00:36:18.606Z,64.17
2019-02-25T00:37:24.440Z,63.20
2019-02-25T00:38:30.894Z,63.20
2019-02-25T00:39:35.412Z,68.75
2019-02-25T00:40:39.700Z,68.20
2019-02-25T00:41:45.648Z,70.20
2019-02-25T00:42:55.990Z,70.85
2019-02-25T00:44:04.134Z,65.20
2019-02-25T00:45:14.746Z,64.97
2019-02-25T00:46:21.266Z,67.53
2019-02-25T00:47:27.463Z,70.90
2019-02-25T00:48:42.442Z,65.85
2019-02-25T00:49:48.040Z,69.82
2019-02-25T00:50:53.930Z,66.70
2019-02-25T00:52:00.888Z,62.03
2019-02-25T00:53:05.694Z,65.60
2019-02-25T00:54:10.230Z,70.80
2019-02-25T00:55:17.202Z,64.45
2019-02-25T00:56:23.314Z,67.45
2019-02-25T00:57:30.446Z,70.28
2019-02-25T00:58:35.014Z,62.78
2019-02-25T00:59:43.712Z,64.05
2019-02-25T01:00:48.670Z,66.57
2019-02-25T01:02:02.698Z,68.47
2019-02-25T01:03:07.094Z,71.30
2019-02-25T01:04:12.378Z,63.40
2019-02-25T01:05:22.804Z,65.92
2019-02-25T01:06:27.967Z,65.45
2019-02-25T01:07:34.425Z,60.63
2019-02-25T01:08:38.742Z,66.28
2019-02-25T01:09:43.206Z,73.02
2019-02-25T01:10:47.270Z,69.27
2019-02-25T01:11:52.603Z,67.85
2019-02-25T01:13:00.221Z,66.22
2019-02-25T01:14:08.895Z,72.08
2019-02-25T01:15:23.053Z,69.87
2019-02-25T01:16:30.531Z,69.27
2019-02-25T01:17:35.742Z,69.03
2019-02-25T01:18:41.055Z,68.65
2019-02-25T01:19:46.444Z,68.17
2019-02-25T01:20:50.616Z,67.25
2019-02-25T01:21:56.986Z,76.02
2019-02-25T01:23:02.084Z,70.78
2019-02-25T01:24:06.383Z,70.57
2019-02-25T01:25:15.706Z,69.32
2019-02-25T01:26:21.808Z,67.97
2019-02-25T01:27:27.132Z,67.32
2019-02-25T01:28:33.818Z,65.65
2019-02-25T01:29:38.783Z,73.10
2019-02-25T01:30:42.878Z,68.15
2019-02-25T01:31:47.020Z,69.47
2019-02-25T01:32:53.337Z,65.87
2019-02-25T01:33:57.594Z,64.58
2019-02-25T01:35:03.184Z,70.08
2019-02-25T01:36:07.398Z,64.17
2019-02-25T01:37:11.627Z,64.80
2019-02-25T01:38:15.899Z,65.70
2019-02-25T01:39:21.889Z,62.62
2019-02-25T01:40:25.908Z,65.28
2019-02-25T01:41:30.155Z,66.85
2019-02-25T01:42:34.366Z,66.57
2019-02-25T01:43:38.355Z,66.17
2019-02-25T01:44:42.356Z,65.85
2019-02-25T01:45:49.221Z,65.22
2019-02-25T01:46:53.228Z,59.67
2019-02-25T01:47:57.189Z,65.62
2019-02-25T01:49:02.762Z,64.87
2019-02-25T01:50:12.639Z,69.45
2019-02-25T01:51:18.502Z,65.15
2019-02-25T01:52:23.099Z,62.13
2019-02-25T01:53:30.590Z,64.10
2019-02-25T01:54:34.660Z,66.25
2019-02-25T01:55:38.602Z,61.63
2019-02-25T01:56:42.538Z,60.35
2019-02-25T01:57:49.536Z,58.78
2019-02-25T01:58:56.324Z,62.65
2019-02-25T02:00:00.421Z,66.77
2019-02-25T02:01:06.302Z,57.50
2019-02-25T02:02:11.863Z,62.00
2019-02-25T02:03:15.909Z,66.62
2019-02-25T02:04:21.936Z,59.38
2019-02-25T02:05:26.012Z,57.15
2019-02-25T02:06:30.035Z,63.50
2019-02-25T02:07:34.110Z,63.63
2019-02-25T02:08:41.028Z,62.13
2019-02-25T02:09:50.821Z,57.15
2019-02-25T02:10:55.799Z,48.87
2019-02-25T02:12:05.211Z,60.70
2019-02-25T02:13:14.029Z,60.65
2019-02-25T02:14:15.932Z,55.95
2019-02-25T02:15:28.239Z,64.30
2019-02-25T02:16:40.140Z,60.52
2019-02-25T02:17:49.266Z,60.67
2019-02-25T02:18:56.759Z,61.23
2019-02-25T02:20:03.654Z,57.53
2019-02-25T02:21:11.786Z,59.67
2019-02-25T02:22:24.237Z,63.15
2019-02-25T02:23:28.932Z,58.58
2019-02-25T02:24:33.033Z,61.83
2019-02-25T02:25:38.384Z,58.55
2019-02-25T02:26:43.458Z,62.10
2019-02-25T02:27:48.493Z,56.83
2019-02-25T02:28:52.493Z,60.25
2019-02-25T02:29:56.451Z,56.83
2019-02-25T02:31:00.859Z,61.48
2019-02-25T02:32:05.483Z,61.48
2019-02-25T02:33:12.489Z,57.13
2019-02-25T02:34:17.905Z,61.02
2019-02-25T02:35:23.637Z,60.00
2019-02-25T02:36:30.915Z,63.25
2019-02-25T02:37:34.970Z,61.80
2019-02-25T02:38:40.045Z,59.73
2019-02-25T02:39:44.151Z,60.15
2019-02-25T02:40:49.681Z,56.30
2019-02-25T02:42:18.721Z,61.68
2019-02-25T02:43:22.894Z,57.48
2019-02-25T02:44:31.080Z,56.35
2019-02-25T02:45:56.644Z,62.27
2019-02-25T02:47:24.076Z,60.70
2019-02-25T02:48:43.757Z,52.23
2019-02-25T02:49:55.549Z,54.08
2019-02-25T02:50:59.969Z,56.00
2019-02-25T02:52:05.735Z,55.08
2019-02-25T02:53:14.789Z,53.25
2019-02-25T02:54:20.872Z,60.35
2019-02-25T02:55:27.939Z,57.13
2019-02-25T02:56:34.267Z,54.15
2019-02-25T02:57:38.437Z,56.60
2019-02-25T02:58:51.444Z,54.40
2019-02-25T02:59:59.337Z,53.08
2019-02-25T03:01:04.080Z,53.75
2019-02-25T03:02:15.479Z,59.45
2019-02-25T03:03:19.769Z,55.20
2019-02-25T03:04:27.042Z,52.67
2019-02-25T03:05:39.374Z,49.88
2019-02-25T03:06:43.420Z,58.28
2019-02-25T03:07:48.076Z,49.40
2019-02-25T03:08:54.303Z,51.28
2019-02-25T03:11:26.783Z,52.35
2019-02-25T03:12:39.962Z,51.75
2019-02-25T03:13:45.670Z,55.67
2019-02-25T03:14:54.374Z,55.63
2019-02-25T03:16:00.093Z,52.90
2019-02-25T03:17:04.787Z,55.83
2019-02-25T03:18:09.220Z,55.65
2019-02-25T03:19:13.494Z,53.20
2019-02-25T03:20:18.884Z,51.02
2019-02-25T03:21:26.006Z,53.95
2019-02-25T03:22:32.401Z,51.92
2019-02-25T03:23:37.901Z,53.58
2019-02-25T03:24:43.765Z,53.25
2019-02-25T03:25:49.640Z,57.38
2019-02-25T03:26:57.652Z,55.73
2019-02-25T03:28:01.913Z,48.85
2019-02-25T03:29:11.443Z,55.80
2019-02-25T03:30:20.741Z,51.75
2019-02-25T03:31:30.949Z,51.65
2019-02-25T03:32:35.486Z,54.30
2019-02-25T03:33:42.811Z,55.92
2019-02-25T03:34:51.807Z,57.23
2019-02-25T03:35:58.938Z,53.58
2019-02-25T03:37:05.068Z,53.87
2019-02-25T03:38:12.243Z,50.58
2019-02-25T03:39:16.267Z,61.30
2019-02-25T03:40:29.979Z,55.08
2019-02-25T03:41:37.518Z,55.75
2019-02-25T03:42:43.296Z,55.05
2019-02-25T03:43:52.910Z,56.58
2019-02-25T03:44:58.968Z,58.70
2019-02-25T03:46:04.598Z,55.48
2019-02-25T03:47:12.924Z,63.45
2019-02-25T03:48:20.099Z,56.50
2019-02-25T03:49:24.007Z,55.15
2019-02-25T03:50:30.627Z,59.70
2019-02-25T03:51:34.623Z,54.20
2019-02-25T03:52:38.576Z,58.75
2019-02-25T03:53:42.736Z,52.93
2019-02-25T03:54:48.455Z,55.58
2019-02-25T03:55:54.195Z,58.20
2019-02-25T03:57:03.463Z,57.65
2019-02-25T03:58:18.545Z,54.18
2019-02-25T03:59:27.565Z,54.88
2019-02-25T04:00:34.099Z,51.80
2019-02-25T04:01:40.049Z,54.80
2019-02-25T04:02:47.321Z,52.70
2019-02-25T04:03:55.510Z,57.62
2019-02-25T04:05:12.501Z,57.65
2019-02-25T04:06:16.822Z,54.40
2019-02-25T04:07:21.001Z,55.03
2019-02-25T04:08:47.209Z,56.92
2019-02-25T04:09:53.230Z,56.92
2019-02-25T04:11:05.189Z,54.70
2019-02-25T04:12:14.605Z,55.20
2019-02-25T04:14:27.375Z,52.70
2019-02-25T04:15:36.992Z,54.63
2019-02-25T04:16:42.239Z,59.05
2019-02-25T04:17:46.466Z,50.85
2019-02-25T04:18:51.242Z,52.93
2019-02-25T04:19:57.064Z,51.75
2019-02-25T04:21:01.973Z,54.70
2019-02-25T04:22:07.339Z,53.78
2019-02-25T04:23:15.077Z,58.15
2019-02-25T04:24:21.828Z,50.73
2019-02-25T04:25:30.491Z,50.40
2019-02-25T04:26:37.000Z,56.75
2019-02-25T04:27:42.694Z,54.48
2019-02-25T04:28:46.770Z,49.90
2019-02-25T04:29:52.061Z,51.18
2019-02-25T04:31:00.329Z,56.73
2019-02-25T04:32:05.384Z,50.40
2019-02-25T04:33:14.519Z,53.63
2019-02-25T04:34:21.744Z,57.70
2019-02-25T04:35:31.379Z,58.08
2019-02-25T04:36:38.239Z,54.50
2019-02-25T04:37:44.815Z,53.60
2019-02-25T04:38:51.457Z,52.35
2019-02-25T04:40:00.235Z,51.88
2019-02-25T04:41:04.869Z,50.67
2019-02-25T04:42:12.549Z,51.48
2019-02-25T04:43:17.550Z,57.00
2019-02-25T04:44:21.947Z,56.05
2019-02-25T04:45:30.600Z,52.30
2019-02-25T04:46:36.033Z,55.98
2019-02-25T04:47:43.437Z,50.95
2019-02-25T04:48:53.672Z,55.08
2019-02-25T04:49:59.930Z,52.53
2019-02-25T04:51:07.864Z,51.02
2019-02-25T04:52:16.542Z,52.98
2019-02-25T04:53:22.168Z,53.90
2019-02-25T04:54:26.139Z,49.55
2019-02-25T04:55:31.346Z,52.90
2019-02-25T04:56:35.231Z,50.45
2019-02-25T04:57:39.271Z,54.10
2019-02-25T04:58:46.304Z,55.70
2019-02-25T04:59:51.771Z,54.10
2019-02-25T05:00:55.807Z,44.63
2019-02-25T05:02:02.776Z,56.30
2019-02-25T05:03:08.537Z,54.38
2019-02-25T05:04:18.567Z,50.43
2019-02-25T05:05:23.926Z,52.75
2019-02-25T05:06:36.877Z,51.00
2019-02-25T05:07:39.504Z,48.95
2019-02-25T05:08:50.801Z,51.60
2019-02-25T05:10:02.843Z,51.05
2019-02-25T05:11:10.590Z,51.02
2019-02-25T05:12:29.883Z,50.40
2019-02-25T05:13:34.765Z,55.73
2019-02-25T05:14:46.022Z,52.13
2019-02-25T05:15:55.506Z,49.70
2019-02-25T05:17:08.743Z,55.28
2019-02-25T05:18:23.191Z,58.45
2019-02-25T05:19:28.821Z,56.73
2019-02-25T05:20:34.959Z,52.30
2019-02-25T05:21:45.408Z,54.85
2019-02-25T05:23:09.274Z,55.35
2019-02-25T05:24:19.703Z,50.90
2019-02-25T05:25:22.408Z,48.73
2019-02-25T05:27:51.467Z,50.90
2019-02-25T05:28:56.529Z,54.73
2019-02-25T05:30:05.697Z,54.15
2019-02-25T05:31:10.366Z,53.45
2019-02-25T05:32:38.434Z,56.45
2019-02-25T05:33:51.341Z,59.45
2019-02-25T05:34:58.089Z,62.27
2019-02-25T05:36:05.786Z,56.23
2019-02-25T05:37:13.095Z,49.98
2019-02-25T05:38:20.174Z,55.73
2019-02-25T05:39:25.334Z,54.18
2019-02-25T05:40:38.630Z,57.13
2019-02-25T05:41:45.660Z,53.33
2019-02-25T05:42:51.363Z,54.18
2019-02-25T05:44:08.614Z,55.33
2019-02-25T05:45:19.410Z,54.53
2019-02-25T05:46:24.599Z,47.53
2019-02-25T05:47:30.244Z,50.17
2019-02-25T05:48:34.268Z,56.33
2019-02-25T05:49:38.533Z,48.58
2019-02-25T05:53:28.695Z,54.40
2019-02-25T05:54:32.925Z,57.23
2019-02-25T05:55:37.157Z,51.85
2019-02-25T05:56:43.989Z,57.38
2019-02-25T05:57:48.116Z,53.45
2019-02-25T05:58:52.835Z,48.38
2019-02-25T06:00:06.333Z,52.65
2019-02-25T06:01:10.432Z,54.18
2019-02-25T06:02:14.667Z,52.67
2019-02-25T06:03:21.713Z,50.35
2019-02-25T06:04:25.753Z,50.63
2019-02-25T06:05:30.132Z,49.80
2019-02-25T06:06:34.157Z,50.78
2019-02-25T06:07:40.004Z,46.68
2019-02-25T06:08:44.131Z,58.08
2019-02-25T06:09:48.475Z,50.23
2019-02-25T06:10:52.576Z,49.63
2019-02-25T06:11:58.313Z,48.65
2019-02-25T06:13:07.744Z,52.55
2019-02-25T06:14:13.734Z,51.65
2019-02-25T06:15:20.716Z,50.33
2019-02-25T06:16:26.563Z,52.35
2019-02-25T06:17:30.665Z,53.80
2019-02-25T06:18:35.827Z,54.60
2019-02-25T06:19:43.702Z,48.78
2019-02-25T06:20:50.594Z,48.38
2019-02-25T06:21:59.030Z,48.10
2019-02-25T06:23:09.801Z,55.75
2019-02-25T06:24:19.198Z,50.33
2019-02-25T06:25:28.164Z,54.18
2019-02-25T06:26:38.617Z,54.23
2019-02-25T06:27:46.956Z,57.00
2019-02-25T06:28:57.795Z,57.93
2019-02-25T06:30:01.472Z,52.78
2019-02-25T06:31:12.665Z,49.35
2019-02-25T06:32:22.709Z,49.80
2019-02-25T06:33:33.056Z,56.63
2019-02-25T06:35:57.823Z,56.92
2019-02-25T06:37:11.233Z,55.15
2019-02-25T06:38:18.150Z,47.78
2019-02-25T06:39:29.288Z,53.17
2019-02-25T06:40:42.727Z,49.35
2019-02-25T06:42:03.427Z,54.08
2019-02-25T06:43:11.318Z,50.40
2019-02-25T06:44:22.974Z,60.60
2019-02-25T06:45:47.811Z,52.48
2019-02-25T06:46:46.565Z,55.65
2019-02-25T06:47:56.181Z,51.83
2019-02-25T06:49:05.550Z,56.10
2019-02-25T06:50:13.512Z,51.23
2019-02-25T06:51:21.017Z,56.83
2019-02-25T06:52:31.252Z,51.28
2019-02-25T06:53:39.426Z,54.35
2019-02-25T06:54:49.102Z,50.83
2019-02-25T06:56:14.275Z,55.88
2019-02-25T06:57:26.167Z,52.70
2019-02-25T06:58:34.272Z,54.83
2019-02-25T07:01:09.891Z,51.25
2019-02-25T07:02:20.039Z,54.33
2019-02-25T07:03:36.628Z,55.03
2019-02-25T07:06:20.164Z,54.50
2019-02-25T07:07:53.802Z,55.50
2019-02-25T07:09:03.792Z,53.50
2019-02-25T07:10:15.162Z,57.35
2019-02-25T07:11:23.698Z,53.90
2019-02-25T07:12:33.916Z,53.63
2019-02-25T07:13:44.987Z,54.18
2019-02-25T07:14:53.313Z,49.83
2019-02-25T07:16:05.792Z,55.50
2019-02-25T07:17:26.686Z,53.42
2019-02-25T07:18:41.243Z,51.58
2019-02-25T07:19:49.125Z,55.35
2019-02-25T07:21:09.713Z,55.63
2019-02-25T07:22:34.694Z,55.78
2019-02-25T07:23:52.732Z,52.70
2019-02-25T07:25:05.957Z,52.60
2019-02-25T07:26:29.229Z,57.65
2019-02-25T07:27:52.378Z,58.23
2019-02-25T07:29:15.517Z,57.55
2019-02-25T07:30:23.436Z,61.70
2019-02-25T07:31:45.317Z,51.88
2019-02-25T07:33:00.571Z,50.48
2019-02-25T07:35:25.935Z,52.95
2019-02-25T07:36:51.078Z,53.75
2019-02-25T07:38:09.845Z,54.27
2019-02-25T07:39:25.122Z,50.88
2019-02-25T07:40:42.259Z,49.80
2019-02-25T07:41:54.962Z,56.15
2019-02-25T07:43:15.828Z,50.35
2019-02-25T07:44:24.204Z,57.00
2019-02-25T07:45:38.250Z,55.38
2019-02-25T07:46:46.466Z,54.73
2019-02-25T07:48:15.751Z,54.95
2019-02-25T07:49:22.770Z,53.00
2019-02-25T07:50:49.540Z,60.67
2019-02-25T07:51:58.132Z,57.67
2019-02-25T07:53:06.460Z,52.98
2019-02-25T07:54:27.205Z,54.27
2019-02-25T07:55:39.270Z,55.98
2019-02-25T07:57:05.347Z,57.17
2019-02-25T07:58:18.422Z,52.17
2019-02-25T07:59:28.626Z,59.10
2019-02-25T08:00:42.155Z,51.25
2019-02-25T08:01:52.920Z,55.70
2019-02-25T08:03:02.960Z,52.95
2019-02-25T08:04:27.353Z,53.98
2019-02-25T08:05:32.992Z,58.45
2019-02-25T08:06:57.860Z,54.83
2019-02-25T08:08:04.318Z,51.25
2019-02-25T08:09:26.162Z,59.10
2019-02-25T08:10:41.230Z,54.27
2019-02-25T08:12:00.962Z,57.10
2019-02-25T08:13:27.112Z,55.52
2019-02-25T08:14:45.209Z,53.33
2019-02-25T08:16:53.724Z,55.90
2019-02-25T08:18:09.939Z,55.63
2019-02-25T08:19:15.895Z,50.75
2019-02-25T08:20:23.314Z,53.78
2019-02-25T08:21:53.350Z,52.17
2019-02-25T08:22:46.493Z,57.15
2019-02-25T08:23:56.751Z,57.35
2019-02-25T08:26:21.941Z,52.75
2019-02-25T08:27:35.162Z,53.85
2019-02-25T08:28:57.387Z,54.40
2019-02-25T08:30:03.081Z,51.90
2019-02-25T08:31:10.760Z,55.33
2019-02-25T08:32:21.626Z,51.98
2019-02-25T08:33:45.562Z,59.30
2019-02-25T08:34:54.639Z,52.55
2019-02-25T08:36:30.625Z,56.48
2019-02-25T08:37:39.981Z,56.37
2019-02-25T08:39:03.158Z,51.43
2019-02-25T08:40:30.662Z,57.55
2019-02-25T08:41:45.392Z,55.43
2019-02-25T08:42:55.866Z,55.67
2019-02-25T08:44:05.487Z,51.63
2019-02-25T08:45:14.924Z,56.10
2019-02-25T08:46:26.641Z,61.45
2019-02-25T08:47:33.622Z,54.90
2019-02-25T08:48:51.369Z,55.23
2019-02-25T08:50:03.705Z,57.55
2019-02-25T08:51:11.823Z,55.60
2019-02-25T08:52:19.419Z,57.35
2019-02-25T08:53:26.478Z,53.28
2019-02-25T08:54:36.122Z,64.95
2019-02-25T08:55:45.749Z,60.05
2019-02-25T08:56:53.748Z,61.05
2019-02-25T08:58:02.424Z,62.65
2019-02-25T08:59:11.226Z,56.42
2019-02-25T09:00:24.148Z,59.30
2019-02-25T09:03:14.921Z,59.40
2019-02-25T09:04:27.535Z,54.38
2019-02-25T09:05:35.468Z,56.35
2019-02-25T09:07:03.442Z,58.95
2019-02-25T09:08:13.205Z,53.98
2019-02-25T09:15:35.939Z,58.50
2019-02-25T09:16:44.538Z,65.20
2019-02-25T09:17:49.532Z,56.35
2019-02-25T09:18:55.434Z,58.65
2019-02-25T09:19:59.718Z,59.70
2019-02-25T09:21:08.042Z,58.17
2019-02-25T09:22:14.383Z,54.95
2019-02-25T09:26:11.953Z,57.53
2019-02-25T09:27:16.728Z,56.33
2019-02-25T09:28:38.104Z,57.70
2019-02-25T09:29:39.002Z,60.78
2019-02-25T09:30:47.415Z,57.67
2019-02-25T09:32:00.260Z,58.08
2019-02-25T09:33:08.920Z,60.12
2019-02-25T09:34:16.292Z,57.55
2019-02-25T09:35:22.698Z,56.05
2019-02-25T09:36:27.001Z,56.98
2019-02-25T09:37:34.547Z,59.60
2019-02-25T09:38:40.740Z,57.53
2019-02-25T09:39:47.074Z,59.18
2019-02-25T09:40:52.621Z,57.93
2019-02-25T09:42:05.780Z,58.70
2019-02-25T09:43:12.619Z,63.08
2019-02-25T09:44:20.861Z,60.25
2019-02-25T09:45:26.654Z,59.00
2019-02-25T09:46:33.896Z,63.85
2019-02-25T09:47:40.246Z,56.60
2019-02-25T09:48:46.840Z,56.95
2019-02-25T09:49:55.194Z,56.70
2019-02-25T09:51:01.558Z,58.33
2019-02-25T09:52:05.693Z,58.17
2019-02-25T09:53:10.834Z,59.45
2019-02-25T09:54:16.545Z,58.48
2019-02-25T09:55:23.620Z,60.63
2019-02-25T09:56:28.781Z,60.33
2019-02-25T09:57:39.117Z,63.05
2019-02-25T09:58:45.400Z,60.23
2019-02-25T09:59:50.166Z,59.48
2019-02-25T10:00:54.488Z,59.85
2019-02-25T10:01:58.668Z,57.67
2019-02-25T10:03:08.237Z,60.03
2019-02-25T10:04:15.378Z,63.25
2019-02-25T10:05:22.238Z,58.30
2019-02-25T10:06:28.154Z,55.08
2019-02-25T10:07:40.429Z,56.10
2019-02-25T10:08:48.288Z,56.10
2019-02-25T10:09:54.227Z,57.83
2019-02-25T10:11:02.204Z,56.85
2019-02-25T10:12:06.633Z,60.40
2019-02-25T10:13:15.525Z,59.53
2019-02-25T10:14:20.668Z,65.30
2019-02-25T10:15:30.947Z,59.75
2019-02-25T10:16:38.122Z,65.08
2019-02-25T10:17:43.437Z,61.15
2019-02-25T10:18:51.150Z,61.05
2019-02-25T10:19:55.437Z,55.10
2019-02-25T10:21:04.234Z,66.07
2019-02-25T10:22:11.404Z,57.95
2019-02-25T10:23:15.616Z,63.08
2019-02-25T10:24:22.474Z,61.08
2019-02-25T10:25:30.890Z,58.45
2019-02-25T10:26:36.612Z,60.98
2019-02-25T10:27:43.304Z,60.75
2019-02-25T10:28:49.160Z,58.58
2019-02-25T10:29:58.373Z,58.10
2019-02-25T10:31:03.426Z,61.65
2019-02-25T10:32:10.179Z,64.07
2019-02-25T10:33:19.814Z,64.95
2019-02-25T10:34:25.895Z,60.30
2019-02-25T10:35:37.503Z,62.43
2019-02-25T10:36:48.116Z,56.70
2019-02-25T10:38:01.048Z,60.33
2019-02-25T10:39:11.280Z,59.75
2019-02-25T10:40:19.758Z,59.30
2019-02-25T10:41:25.590Z,61.40
2019-02-25T10:42:31.547Z,63.15
2019-02-25T10:43:42.929Z,59.80
2019-02-25T10:44:59.326Z,61.23
2019-02-25T10:46:19.284Z,62.03
2019-02-25T10:47:28.573Z,62.50
2019-02-25T10:48:38.600Z,65.57
2019-02-25T10:49:48.059Z,64.70
2019-02-25T10:50:56.496Z,59.43
2019-02-25T10:52:02.281Z,64.40
2019-02-25T10:53:06.404Z,59.40
2019-02-25T10:54:10.590Z,53.60
2019-02-25T10:55:31.340Z,61.85
2019-02-25T10:56:42.854Z,62.65
2019-02-25T10:57:56.627Z,65.25
2019-02-25T10:59:17.626Z,57.95
2019-02-25T11:00:24.007Z,62.60
2019-02-25T11:01:31.320Z,67.08
2019-02-25T11:02:46.836Z,58.90
2019-02-25T11:03:52.602Z,63.78
2019-02-25T11:05:01.145Z,63.45
2019-02-25T11:06:06.921Z,65.05
2019-02-25T11:07:16.155Z,61.15
2019-02-25T11:08:28.148Z,65.92
2019-02-25T11:09:41.903Z,68.28
2019-02-25T11:11:01.660Z,65.78
2019-02-25T11:12:10.389Z,67.53
2019-02-25T11:13:14.318Z,70.97
2019-02-25T11:14:19.947Z,64.47
2019-02-25T11:15:28.170Z,62.98
2019-02-25T11:16:32.141Z,63.75
2019-02-25T11:17:58.926Z,62.80
2019-02-25T11:18:58.588Z,65.67
2019-02-25T11:20:12.900Z,60.78
2019-02-25T11:21:18.541Z,65.65
2019-02-25T11:22:24.196Z,62.25
2019-02-25T11:23:31.091Z,62.60
2019-02-25T11:24:55.520Z,66.85
2019-02-25T11:25:58.301Z,67.03
2019-02-25T11:27:07.338Z,67.67
2019-02-25T11:28:24.796Z,66.25
2019-02-25T11:30:49.252Z,65.37
2019-02-25T11:31:55.638Z,67.30
2019-02-25T11:33:00.076Z,69.27
2019-02-25T11:34:08.072Z,71.28
2019-02-25T11:35:15.514Z,65.87
2019-02-25T11:36:24.348Z,67.00
2019-02-25T11:37:39.238Z,71.62
2019-02-25T11:38:48.308Z,69.30
2019-02-25T11:39:59.805Z,66.00
2019-02-25T11:41:11.295Z,67.82
2019-02-25T11:42:26.234Z,68.97
2019-02-25T11:43:44.068Z,71.20
2019-02-25T11:44:54.101Z,68.55
2019-02-25T11:46:00.742Z,66.53
2019-02-25T11:47:06.925Z,70.62
2019-02-25T11:48:14.026Z,68.20
2019-02-25T11:49:33.281Z,72.70
2019-02-25T11:50:42.425Z,72.75
2019-02-25T11:51:48.802Z,67.87
2019-02-25T11:52:55.516Z,69.80
2019-02-25T11:54:05.898Z,73.12
2019-02-25T11:56:38.739Z,71.70
2019-02-25T11:57:46.822Z,72.67
2019-02-25T11:58:54.295Z,72.75
2019-02-25T11:59:58.418Z,74.37
2019-02-25T12:01:04.497Z,72.85
2019-02-25T12:02:24.969Z,75.32
2019-02-25T12:03:27.130Z,68.47
2019-02-25T12:04:37.605Z,75.00
2019-02-25T12:05:58.080Z,72.95
2019-02-25T12:06:55.385Z,78.02
2019-02-25T12:08:04.605Z,71.62
2019-02-25T12:09:12.476Z,74.90
2019-02-25T12:10:22.573Z,72.92
2019-02-25T12:11:30.365Z,72.78
2019-02-25T12:12:44.378Z,73.10
2019-02-25T12:13:53.997Z,76.75
2019-02-25T12:15:00.345Z,81.80
2019-02-25T12:16:09.483Z,72.53
2019-02-25T12:17:20.843Z,74.72
2019-02-25T12:18:29.898Z,74.05
2019-02-25T12:21:00.138Z,71.22
2019-02-25T12:22:07.295Z,76.00
2019-02-25T12:23:16.426Z,71.77
2019-02-25T12:24:23.229Z,66.92
2019-02-25T12:25:35.040Z,76.28
2019-02-25T12:26:44.123Z,74.03
2019-02-25T12:27:48.362Z,67.30
2019-02-25T12:28:54.051Z,64.82
2019-02-25T12:29:59.949Z,71.55
2019-02-25T12:31:06.719Z,74.40
2019-02-25T12:32:13.513Z,70.85
2019-02-25T12:33:20.964Z,73.65
2019-02-25T12:34:25.464Z,72.00
2019-02-25T12:35:35.247Z,67.12
2019-02-25T12:36:41.453Z,70.52
2019-02-25T12:37:48.191Z,71.62
2019-02-25T12:38:56.235Z,70.42
2019-02-25T12:40:04.079Z,68.42
2019-02-25T12:41:16.582Z,65.65
2019-02-25T12:42:24.488Z,67.17
2019-02-25T12:43:35.789Z,70.70
2019-02-25T12:44:44.111Z,68.97
2019-02-25T12:45:51.171Z,66.40
2019-02-25T12:46:55.345Z,70.10
2019-02-25T12:48:03.614Z,74.27
2019-02-25T12:49:10.731Z,68.47
2019-02-25T12:50:22.685Z,68.67
2019-02-25T12:51:29.755Z,68.52
2019-02-25T12:52:34.348Z,70.20
2019-02-25T12:53:39.437Z,72.60
2019-02-25T12:54:46.455Z,72.47
2019-02-25T12:55:52.259Z,72.65
2019-02-25T12:57:01.805Z,67.97
2019-02-25T12:58:05.812Z,62.58
2019-02-25T12:59:12.627Z,69.47
2019-02-25T13:00:25.999Z,69.35
2019-02-25T13:01:27.640Z,71.57
2019-02-25T13:02:33.955Z,70.40
2019-02-25T13:03:38.686Z,67.60
2019-02-25T13:04:49.339Z,68.55
2019-02-25T13:05:55.094Z,72.20
2019-02-25T13:07:00.693Z,71.65
2019-02-25T13:08:09.125Z,72.50
2019-02-25T13:09:28.758Z,75.22
2019-02-25T13:10:34.730Z,72.32
2019-02-25T13:13:12.001Z,62.98
2019-02-25T13:14:13.317Z,67.85
2019-02-25T13:15:19.814Z,76.00
2019-02-25T13:17:56.813Z,72.67
2019-02-25T13:19:04.403Z,73.62
2019-02-25T13:20:14.793Z,72.70
2019-02-25T13:21:21.883Z,69.47
2019-02-25T13:22:35.801Z,75.95
2019-02-25T13:23:42.137Z,71.12
2019-02-25T13:24:47.370Z,68.72
2019-02-25T13:26:06.971Z,70.05
2019-02-25T13:28:18.111Z,67.53
2019-02-25T13:29:27.018Z,63.17
2019-02-25T13:32:00.580Z,69.77
2019-02-25T13:33:05.133Z,69.32
2019-02-25T13:34:16.052Z,69.95
2019-02-25T13:35:30.641Z,68.35
2019-02-25T13:36:38.093Z,69.05
2019-02-25T13:37:44.890Z,68.90
2019-02-25T13:38:51.609Z,74.27
2019-02-25T13:39:58.674Z,71.87
2019-02-25T13:41:06.559Z,70.20
2019-02-25T13:43:51.779Z,71.25
2019-02-25T13:44:56.917Z,73.83
2019-02-25T13:46:10.211Z,71.90
2019-02-25T13:47:17.212Z,73.00
2019-02-25T13:48:26.153Z,69.60
2019-02-25T13:49:30.387Z,73.90
2019-02-25T13:50:38.432Z,75.62
2019-02-25T13:51:49.121Z,70.80
2019-02-25T13:52:53.493Z,70.22
2019-02-25T13:53:58.769Z,78.95
2019-02-25T13:55:12.032Z,70.97
2019-02-25T13:56:25.722Z,75.12
2019-02-25T13:57:31.406Z,72.87
2019-02-25T13:58:36.038Z,68.75
2019-02-25T13:59:43.921Z,73.20
2019-02-25T14:00:51.852Z,67.80
2019-02-25T14:01:57.685Z,69.85
2019-02-25T14:03:05.933Z,63.17
2019-02-25T14:04:23.878Z,67.80
2019-02-25T14:05:40.691Z,73.45
2019-02-25T14:06:42.738Z,66.10
2019-02-25T14:07:48.900Z,73.20
2019-02-25T14:08:52.889Z,77.10
2019-02-25T14:10:04.095Z,73.00
2019-02-25T14:11:17.367Z,72.75
2019-02-25T14:12:27.014Z,75.83
2019-02-25T14:13:32.685Z,75.67
2019-02-25T14:14:40.077Z,71.85
2019-02-25T14:15:44.443Z,78.47
2019-02-25T14:16:59.121Z,73.33
2019-02-25T14:18:18.173Z,76.37
2019-02-25T14:19:25.060Z,71.85
2019-02-25T14:20:31.945Z,68.02
2019-02-25T14:21:39.703Z,78.72
2019-02-25T14:24:29.459Z,76.57
2019-02-25T14:25:38.324Z,77.35
2019-02-25T14:26:50.306Z,82.62
2019-02-25T14:27:58.171Z,82.97
2019-02-25T14:29:16.438Z,78.95
2019-02-25T14:30:26.661Z,86.00
2019-02-25T14:31:32.367Z,84.15
2019-02-25T14:32:42.662Z,84.87
2019-02-25T14:33:52.076Z,82.57
2019-02-25T14:35:05.153Z,85.70
2019-02-25T14:36:28.142Z,89.58
2019-02-25T14:37:24.932Z,83.67
2019-02-25T14:38:32.301Z,86.22
2019-02-25T14:39:38.289Z,84.42
2019-02-25T14:40:46.574Z,84.92
2019-02-25T14:41:54.961Z,78.87
2019-02-25T14:43:00.563Z,76.85
2019-02-25T14:44:08.784Z,84.62
2019-02-25T14:45:14.733Z,84.72
2019-02-25T14:46:26.827Z,88.62
2019-02-25T14:47:36.809Z,87.62
2019-02-25T14:48:41.883Z,91.57
2019-02-25T14:49:48.212Z,89.25
2019-02-25T14:51:13.059Z,92.95
2019-02-25T14:52:24.351Z,89.60
2019-02-25T14:53:41.749Z,92.08
2019-02-25T14:54:52.447Z,88.72
2019-02-25T14:56:03.845Z,87.15
2019-02-25T14:57:21.101Z,87.00
2019-02-25T14:58:31.366Z,91.82
2019-02-25T14:59:34.307Z,90.03
2019-02-25T15:00:41.014Z,94.80
2019-02-25T15:01:50.645Z,91.55
2019-02-25T15:02:59.523Z,90.80
2019-02-25T15:04:08.915Z,96.00
2019-02-25T15:05:15.026Z,95.70
2019-02-25T15:06:22.198Z,90.45
2019-02-25T15:07:32.408Z,95.50
2019-02-25T15:08:42.431Z,91.20
2019-02-25T15:09:53.396Z,88.82
2019-02-25T15:11:01.902Z,91.08
2019-02-25T15:12:27.447Z,90.38
2019-02-25T15:13:37.459Z,89.50
2019-02-25T15:14:40.815Z,95.77
2019-02-25T15:15:59.214Z,87.47
2019-02-25T15:17:20.642Z,101.07
2019-02-25T15:18:42.443Z,100.10
2019-02-25T15:19:51.474Z,95.00
2019-02-25T15:20:56.459Z,96.92
2019-02-25T15:22:03.766Z,99.30
2019-02-25T15:23:16.378Z,100.12
2019-02-25T15:25:29.200Z,103.72
2019-02-25T15:26:42.586Z,99.10